createdAt,value
2022-11-05T00:02:01.568Z,58.54
2022-11-05T00:07:22.911Z,58.41
2022-11-05T00:12:44.059Z,58.30
2022-11-05T00:17:47.539Z,58.19
2022-11-05T00:23:08.912Z,58.12
2022-11-05T00:28:12.476Z,58.46
2022-11-05T00:33:15.940Z,58.03
2022-11-05T00:38:19.360Z,58.13
2022-11-05T00:43:40.538Z,58.23
2022-11-05T00:49:01.807Z,58.17
2022-11-05T00:54:05.274Z,58.18
2022-11-05T00:59:08.727Z,58.16
2022-11-05T01:04:12.177Z,58.13
2022-11-05T01:09:15.612Z,58.08
2022-11-05T01:14:19.221Z,58.14
2022-11-05T01:19:22.722Z,57.97
2022-11-05T01:24:26.154Z,58.02
2022-11-05T01:29:29.653Z,57.89
2022-11-05T01:34:33.072Z,57.77
2022-11-05T01:39:36.608Z,57.71
2022-11-05T01:44:40.039Z,57.64
2022-11-05T01:49:43.511Z,57.46
2022-11-05T01:54:47.177Z,57.21
2022-11-05T01:59:50.605Z,57.34
2022-11-05T02:04:54.489Z,57.24
2022-11-05T02:09:57.935Z,57.27
2022-11-05T02:15:01.387Z,57.28
2022-11-05T02:20:04.821Z,57.02
2022-11-05T02:25:08.253Z,57.14
2022-11-05T02:30:11.797Z,57.05
2022-11-05T02:35:15.315Z,56.93
2022-11-05T02:40:19.201Z,56.96
2022-11-05T02:45:22.651Z,57.03
2022-11-05T02:50:26.077Z,56.93
2022-11-05T02:55:29.500Z,56.77
2022-11-05T03:00:33.016Z,56.68
2022-11-05T03:05:36.445Z,56.71
2022-11-05T03:10:39.883Z,56.67
2022-11-05T03:15:43.324Z,56.62
2022-11-05T03:20:46.777Z,56.46
2022-11-05T03:25:50.255Z,56.49
2022-11-05T03:30:53.682Z,56.48
2022-11-05T03:35:57.120Z,56.42
2022-11-05T03:41:00.571Z,56.28
2022-11-05T03:46:04.009Z,56.45
2022-11-05T03:51:07.425Z,56.33
2022-11-05T03:56:10.865Z,56.41
2022-11-05T04:01:14.405Z,56.42
2022-11-05T04:06:35.208Z,56.30
2022-11-05T04:11:56.466Z,56.27
2022-11-05T04:17:09.812Z,56.18
2022-11-05T04:22:31.016Z,55.96
2022-11-05T04:27:34.449Z,56.29
2022-11-05T04:32:37.948Z,56.04
2022-11-05T04:37:41.379Z,56.10
2022-11-05T04:42:44.828Z,56.19
2022-11-05T04:47:48.265Z,56.21
2022-11-05T04:52:51.824Z,56.30
2022-11-05T04:57:55.305Z,56.29
2022-11-05T05:02:58.808Z,56.30
2022-11-05T05:08:02.313Z,56.31
2022-11-05T05:13:05.753Z,56.22
2022-11-05T05:18:09.222Z,56.42
2022-11-05T05:23:12.995Z,56.54
2022-11-05T05:28:16.664Z,56.46
2022-11-05T05:33:20.090Z,56.50
2022-11-05T05:38:23.547Z,56.42
2022-11-05T05:43:27.049Z,56.51
2022-11-05T05:48:30.496Z,56.27
2022-11-05T05:53:34.062Z,55.81
2022-11-05T05:58:37.565Z,56.36
2022-11-05T06:03:41.022Z,56.58
2022-11-05T06:08:44.476Z,56.76
2022-11-05T06:13:48.001Z,56.42
2022-11-05T06:18:51.515Z,56.81
2022-11-05T06:23:55.015Z,56.65
2022-11-05T06:28:58.478Z,56.65
2022-11-05T06:34:02.732Z,56.73
2022-11-05T06:39:06.163Z,56.57
2022-11-05T06:44:09.592Z,56.67
2022-11-05T06:49:13.116Z,56.70
2022-11-05T06:54:16.567Z,56.55
2022-11-05T06:59:20.081Z,56.48
2022-11-05T07:04:23.560Z,56.35
2022-11-05T07:09:26.988Z,56.13
2022-11-05T07:14:30.422Z,55.44
2022-11-05T07:19:33.864Z,55.10
2022-11-05T07:24:37.300Z,55.72
2022-11-05T07:29:40.803Z,57.35
2022-11-05T07:34:44.238Z,55.43
2022-11-05T07:39:47.824Z,55.85
2022-11-05T07:44:51.284Z,55.83
2022-11-05T07:49:54.708Z,55.98
2022-11-05T07:55:00.322Z,56.21
2022-11-05T08:00:03.885Z,56.18
2022-11-05T08:05:07.729Z,55.96
2022-11-05T08:10:11.167Z,55.88
2022-11-05T08:15:14.649Z,56.75
2022-11-05T08:20:18.184Z,57.99
2022-11-05T08:25:21.622Z,61.02
2022-11-05T08:30:25.110Z,60.35
2022-11-05T08:35:28.634Z,58.74
2022-11-05T08:40:32.073Z,58.09
2022-11-05T08:45:36.510Z,57.68
2022-11-05T08:50:41.518Z,57.51
2022-11-05T08:55:46.472Z,57.30
2022-11-05T09:00:50.120Z,58.12
2022-11-05T09:05:53.636Z,58.59
2022-11-05T09:10:57.234Z,58.43
2022-11-05T09:16:00.741Z,58.59
2022-11-05T09:21:04.177Z,58.27
2022-11-05T09:26:07.720Z,58.19
2022-11-05T09:31:11.153Z,58.15
2022-11-05T09:36:14.745Z,58.14
2022-11-05T09:41:18.257Z,58.02
2022-11-05T09:46:21.682Z,58.02
2022-11-05T09:51:25.142Z,58.12
2022-11-05T09:56:28.651Z,58.05
2022-11-05T10:01:32.214Z,58.15
2022-11-05T10:06:35.853Z,58.07
2022-11-05T10:11:43.877Z,57.56
2022-11-05T10:16:47.392Z,57.76
2022-11-05T10:22:07.235Z,57.76
2022-11-05T10:27:10.970Z,57.77
2022-11-05T10:32:14.398Z,57.72
2022-11-05T10:37:17.857Z,57.61
2022-11-05T10:42:21.370Z,57.49
2022-11-05T10:47:24.802Z,57.70
2022-11-05T10:52:29.201Z,57.95
2022-11-05T10:57:32.679Z,58.02
2022-11-05T11:02:36.218Z,58.08
2022-11-05T11:07:39.716Z,58.07
2022-11-05T11:12:43.269Z,59.16
2022-11-05T11:17:46.788Z,58.32
2022-11-05T11:22:50.484Z,57.96
2022-11-05T11:27:54.145Z,57.52
2022-11-05T11:32:57.615Z,58.10
2022-11-05T11:38:02.200Z,58.04
2022-11-05T11:43:05.749Z,58.43
2022-11-05T11:48:09.225Z,58.48
2022-11-05T11:53:13.092Z,58.56
2022-11-05T11:58:16.779Z,58.71
2022-11-05T12:03:20.778Z,58.79
2022-11-05T12:08:24.362Z,59.01
2022-11-05T12:13:27.821Z,59.12
2022-11-05T12:18:31.275Z,58.73
2022-11-05T12:23:34.780Z,58.85
2022-11-05T12:28:57.788Z,58.47
2022-11-05T12:34:01.729Z,58.81
2022-11-05T12:39:05.488Z,58.87
2022-11-05T12:44:08.960Z,58.86
2022-11-05T12:49:12.433Z,58.68
2022-11-05T12:54:15.860Z,58.76
2022-11-05T12:59:19.624Z,58.61
2022-11-05T13:04:23.066Z,58.60
2022-11-05T13:09:26.569Z,58.39
2022-11-05T13:14:30.100Z,58.57
2022-11-05T13:19:33.552Z,58.21
2022-11-05T13:24:36.993Z,57.96
2022-11-05T13:29:40.461Z,57.51
2022-11-05T13:34:43.922Z,57.59
2022-11-05T13:39:47.497Z,57.41
2022-11-05T13:44:51.003Z,57.29
2022-11-05T13:49:54.518Z,57.33
2022-11-05T13:54:57.996Z,57.57
2022-11-05T14:00:01.519Z,57.44
2022-11-05T14:05:05.004Z,57.70
2022-11-05T14:10:08.440Z,57.90
2022-11-05T14:15:11.896Z,58.15
2022-11-05T14:20:15.339Z,58.53
2022-11-05T14:25:18.777Z,58.24
2022-11-05T14:30:22.594Z,58.85
2022-11-05T14:35:26.512Z,58.40
2022-11-05T14:40:29.967Z,58.78
2022-11-05T14:45:33.476Z,58.46
2022-11-05T14:50:36.971Z,58.35
2022-11-05T14:55:40.432Z,58.75
2022-11-05T15:00:43.880Z,58.21
2022-11-05T15:05:47.413Z,58.09
2022-11-05T15:10:50.852Z,57.76
2022-11-05T15:15:54.349Z,57.83
2022-11-05T15:20:57.774Z,57.47
2022-11-05T15:26:01.284Z,57.47
2022-11-05T15:31:04.864Z,57.47
2022-11-05T15:36:08.314Z,57.26
2022-11-05T15:41:11.820Z,57.13
2022-11-05T15:46:15.245Z,57.18
2022-11-05T15:51:18.826Z,57.07
2022-11-05T15:56:22.328Z,56.98
2022-11-05T16:01:27.943Z,57.11
2022-11-05T16:06:31.537Z,57.41
2022-11-05T16:11:34.985Z,57.66
2022-11-05T16:16:38.521Z,57.65
2022-11-05T16:21:42.019Z,57.50
2022-11-05T16:27:02.196Z,57.67
2022-11-05T16:32:06.629Z,57.40
2022-11-05T16:37:10.190Z,57.42
2022-11-05T16:42:13.708Z,57.25
2022-11-05T16:47:17.148Z,57.14
2022-11-05T16:52:20.643Z,57.29
2022-11-05T16:57:24.153Z,57.16
2022-11-05T17:02:30.102Z,57.37
2022-11-05T17:07:37.183Z,57.19
2022-11-05T17:12:44.570Z,57.22
2022-11-05T17:17:48.124Z,57.35
2022-11-05T17:22:51.593Z,57.11
2022-11-05T17:27:55.080Z,57.03
2022-11-05T17:32:58.740Z,57.16
2022-11-05T17:38:02.236Z,57.34
2022-11-05T17:43:05.703Z,57.26
2022-11-05T17:48:10.035Z,57.20
2022-11-05T17:53:13.901Z,57.16
2022-11-05T17:58:17.644Z,56.81
2022-11-05T18:03:21.063Z,56.83
2022-11-05T18:08:24.681Z,56.88
2022-11-05T18:13:28.179Z,56.94
2022-11-05T18:18:31.769Z,56.98
2022-11-05T18:23:35.209Z,56.92
2022-11-05T18:28:38.668Z,56.95
2022-11-05T18:33:42.529Z,56.90
2022-11-05T18:38:54.450Z,56.90
2022-11-05T18:43:58.065Z,56.90
2022-11-05T18:49:01.556Z,56.90
2022-11-05T18:54:05.162Z,56.95
2022-11-05T18:59:35.193Z,56.98
2022-11-05T19:04:32.161Z,56.96
2022-11-05T19:09:35.613Z,56.95
2022-11-05T19:14:39.087Z,56.89
2022-11-05T19:19:42.616Z,56.88
2022-11-05T19:24:46.098Z,56.91
2022-11-05T19:29:49.562Z,56.80
2022-11-05T19:34:53.033Z,56.59
2022-11-05T19:39:56.479Z,56.41
2022-11-05T19:45:16.755Z,56.48
2022-11-05T19:50:23.743Z,56.82
2022-11-05T19:55:27.187Z,56.70
2022-11-05T20:00:30.693Z,56.71
2022-11-05T20:05:34.238Z,57.03
2022-11-05T20:10:37.730Z,57.15
2022-11-05T20:15:41.215Z,57.27
2022-11-05T20:20:44.732Z,57.24
2022-11-05T20:25:48.158Z,57.30
2022-11-05T20:30:51.667Z,57.34
2022-11-05T20:35:55.145Z,57.33
2022-11-05T20:40:58.794Z,57.27
2022-11-05T20:46:02.233Z,57.21
2022-11-05T20:51:05.693Z,56.99
2022-11-05T20:56:09.543Z,58.24
2022-11-05T21:01:13.039Z,57.93
2022-11-05T21:06:16.666Z,56.18
2022-11-05T21:11:20.112Z,56.03
2022-11-05T21:16:23.541Z,56.11
2022-11-05T21:21:27.345Z,56.25
2022-11-05T21:26:31.701Z,56.50
2022-11-05T21:31:35.224Z,56.53
2022-11-05T21:36:38.673Z,56.60
2022-11-05T21:41:42.645Z,56.61
2022-11-05T21:46:46.173Z,56.62
2022-11-05T21:52:18.783Z,56.71
2022-11-05T21:57:39.662Z,56.71
2022-11-05T22:02:43.229Z,56.67
2022-11-05T22:07:46.794Z,56.57
2022-11-05T22:12:50.269Z,56.34
2022-11-05T22:17:53.706Z,56.50
2022-11-05T22:22:57.221Z,56.28
2022-11-05T22:28:00.666Z,56.35
2022-11-05T22:33:04.194Z,56.51
2022-11-05T22:38:07.633Z,56.46
2022-11-05T22:43:11.113Z,56.58
2022-11-05T22:48:14.957Z,56.46
2022-11-05T22:53:18.653Z,56.48
2022-11-05T22:58:22.083Z,56.47
2022-11-05T23:03:25.756Z,56.43
2022-11-05T23:08:46.648Z,56.33
2022-11-05T23:13:50.106Z,56.50
2022-11-05T23:19:07.434Z,56.42
2022-11-05T23:24:11.304Z,56.47
2022-11-05T23:29:14.801Z,56.42
2022-11-05T23:34:18.361Z,56.46
2022-11-05T23:39:21.844Z,56.21
2022-11-05T23:44:43.047Z,56.32
2022-11-05T23:49:46.476Z,56.47
2022-11-05T23:54:49.892Z,56.42
2022-11-05T23:59:53.321Z,56.46
